sensor_id;sensor_type;location;lat;lon;timestamp;temperature;humidity
54264;DHT22;40178;53.042;6.406;2022-10-16T00:00:31;11.30;99.90
54264;DHT22;40178;53.042;6.406;2022-10-16T00:02:57;11.30;99.90
54264;DHT22;40178;53.042;6.406;2022-10-16T00:05:22;11.20;99.90
54264;DHT22;40178;53.042;6.406;2022-10-16T00:07:48;11.20;99.90
54264;DHT22;40178;53.042;6.406;2022-10-16T00:10:14;11.30;99.90
54264;DHT22;40178;53.042;6.406;2022-10-16T00:12:39;11.30;99.90
54264;DHT22;40178;53.042;6.406;2022-10-16T00:15:05;11.30;99.90
54264;DHT22;40178;53.042;6.406;2022-10-16T00:17:31;11.40;99.90
54264;DHT22;40178;53.042;6.406;2022-10-16T00:19:57;11.40;99.90
54264;DHT22;40178;53.042;6.406;2022-10-16T00:22:22;11.40;99.90
54264;DHT22;40178;53.042;6.406;2022-10-16T00:24:48;11.40;99.90
54264;DHT22;40178;53.042;6.406;2022-10-16T00:27:14;11.50;99.90
54264;DHT22;40178;53.042;6.406;2022-10-16T00:29:39;11.50;99.90
54264;DHT22;40178;53.042;6.406;2022-10-16T00:32:05;11.50;99.90
54264;DHT22;40178;53.042;6.406;2022-10-16T00:34:31;11.60;99.90
54264;DHT22;40178;53.042;6.406;2022-10-16T00:36:56;11.70;99.90
54264;DHT22;40178;53.042;6.406;2022-10-16T00:39:22;11.60;99.90
54264;DHT22;40178;53.042;6.406;2022-10-16T00:41:47;11.60;99.90
54264;DHT22;40178;53.042;6.406;2022-10-16T00:47:11;11.60;99.90
54264;DHT22;40178;53.042;6.406;2022-10-16T00:49:38;11.70;99.90
54264;DHT22;40178;53.042;6.406;2022-10-16T00:52:05;11.70;99.90
54264;DHT22;40178;53.042;6.406;2022-10-16T00:54:32;11.60;99.90
54264;DHT22;40178;53.042;6.406;2022-10-16T00:57:02;11.60;99.90
54264;DHT22;40178;53.042;6.406;2022-10-16T00:59:32;11.60;99.90
54264;DHT22;40178;53.042;6.406;2022-10-16T01:01:58;11.60;99.90
54264;DHT22;40178;53.042;6.406;2022-10-16T01:04:25;11.60;99.90
54264;DHT22;40178;53.042;6.406;2022-10-16T01:07:11;11.60;99.90
54264;DHT22;40178;53.042;6.406;2022-10-16T01:12:44;11.60;99.90
54264;DHT22;40178;53.042;6.406;2022-10-16T01:21:04;11.60;99.90
54264;DHT22;40178;53.042;6.406;2022-10-16T01:23:51;11.70;99.90
54264;DHT22;40178;53.042;6.406;2022-10-16T01:30:12;11.70;99.90
54264;DHT22;40178;53.042;6.406;2022-10-16T01:39:39;11.60;99.90
54264;DHT22;40178;53.042;6.406;2022-10-16T01:46:08;11.90;99.90
54264;DHT22;40178;53.042;6.406;2022-10-16T01:52:36;11.80;99.90
54264;DHT22;40178;53.042;6.406;2022-10-16T01:55:31;12.10;99.90
54264;DHT22;40178;53.042;6.406;2022-10-16T01:58:26;11.70;99.90
54264;DHT22;40178;53.042;6.406;2022-10-16T02:18:11;11.70;99.90
54264;DHT22;40178;53.042;6.406;2022-10-16T02:20:51;12.00;99.90
54264;DHT22;40178;53.042;6.406;2022-10-16T02:23:38;11.80;99.90
54264;DHT22;40178;53.042;6.406;2022-10-16T02:26:52;11.90;99.90
54264;DHT22;40178;53.042;6.406;2022-10-16T02:32:57;11.80;99.90
54264;DHT22;40178;53.042;6.406;2022-10-16T02:35:58;12.10;99.90
54264;DHT22;40178;53.042;6.406;2022-10-16T02:38:52;11.90;99.90
54264;DHT22;40178;53.042;6.406;2022-10-16T02:44:51;11.80;99.90
54264;DHT22;40178;53.042;6.406;2022-10-16T02:47:40;11.90;99.90
54264;DHT22;40178;53.042;6.406;2022-10-16T02:50:50;12.00;99.90
54264;DHT22;40178;53.042;6.406;2022-10-16T02:53:21;12.10;99.90
54264;DHT22;40178;53.042;6.406;2022-10-16T02:56:10;11.90;99.90
54264;DHT22;40178;53.042;6.406;2022-10-16T02:59:07;12.30;99.90
54264;DHT22;40178;53.042;6.406;2022-10-16T03:02:00;11.90;99.90
54264;DHT22;40178;53.042;6.406;2022-10-16T03:04:55;11.90;99.90
54264;DHT22;40178;53.042;6.406;2022-10-16T03:08:11;12.10;99.90
54264;DHT22;40178;53.042;6.406;2022-10-16T03:11:18;12.00;99.90
54264;DHT22;40178;53.042;6.406;2022-10-16T03:14:05;11.90;99.90
54264;DHT22;40178;53.042;6.406;2022-10-16T03:17:05;11.90;99.90
54264;DHT22;40178;53.042;6.406;2022-10-16T03:19:56;11.80;99.90
54264;DHT22;40178;53.042;6.406;2022-10-16T03:22:43;12.00;99.90
54264;DHT22;40178;53.042;6.406;2022-10-16T03:29:23;11.80;99.90
54264;DHT22;40178;53.042;6.406;2022-10-16T03:38:20;11.80;99.90
54264;DHT22;40178;53.042;6.406;2022-10-16T03:47:13;11.60;99.90
54264;DHT22;40178;53.042;6.406;2022-10-16T03:50:07;11.10;99.90
54264;DHT22;40178;53.042;6.406;2022-10-16T03:57:21;12.00;99.90
54264;DHT22;40178;53.042;6.406;2022-10-16T04:00:39;11.90;99.90
54264;DHT22;40178;53.042;6.406;2022-10-16T04:06:46;11.90;99.90
54264;DHT22;40178;53.042;6.406;2022-10-16T04:12:33;11.80;99.90
54264;DHT22;40178;53.042;6.406;2022-10-16T04:15:31;11.50;99.90
54264;DHT22;40178;53.042;6.406;2022-10-16T04:18:12;11.70;99.90
54264;DHT22;40178;53.042;6.406;2022-10-16T04:23:59;11.50;99.90
54264;DHT22;40178;53.042;6.406;2022-10-16T04:30:40;11.70;99.90
54264;DHT22;40178;53.042;6.406;2022-10-16T04:33:16;12.00;99.90
54264;DHT22;40178;53.042;6.406;2022-10-16T04:36:15;11.40;99.90
54264;DHT22;40178;53.042;6.406;2022-10-16T04:39:31;11.60;99.90
54264;DHT22;40178;53.042;6.406;2022-10-16T04:45:30;11.60;99.90
54264;DHT22;40178;53.042;6.406;2022-10-16T04:52:33;11.70;99.90
54264;DHT22;40178;53.042;6.406;2022-10-16T04:54:55;11.80;99.90
54264;DHT22;40178;53.042;6.406;2022-10-16T04:57:29;11.80;99.90
54264;DHT22;40178;53.042;6.406;2022-10-16T05:00:39;12.00;99.90
54264;DHT22;40178;53.042;6.406;2022-10-16T05:03:12;12.20;99.90
54264;DHT22;40178;53.042;6.406;2022-10-16T05:05:54;11.80;99.90
54264;DHT22;40178;53.042;6.406;2022-10-16T05:12:28;11.80;99.90
54264;DHT22;40178;53.042;6.406;2022-10-16T05:15:54;11.90;99.90
54264;DHT22;40178;53.042;6.406;2022-10-16T05:19:00;11.80;99.90
54264;DHT22;40178;53.042;6.406;2022-10-16T05:25:38;12.00;99.90
54264;DHT22;40178;53.042;6.406;2022-10-16T05:28:42;12.00;99.90
54264;DHT22;40178;53.042;6.406;2022-10-16T05:31:52;11.60;99.90
54264;DHT22;40178;53.042;6.406;2022-10-16T05:34:37;12.00;99.90
54264;DHT22;40178;53.042;6.406;2022-10-16T05:37:28;12.20;99.90
54264;DHT22;40178;53.042;6.406;2022-10-16T05:41:01;12.50;99.90
54264;DHT22;40178;53.042;6.406;2022-10-16T05:54:07;12.10;99.90
54264;DHT22;40178;53.042;6.406;2022-10-16T05:56:36;12.10;99.90
54264;DHT22;40178;53.042;6.406;2022-10-16T05:59:28;12.00;99.90
54264;DHT22;40178;53.042;6.406;2022-10-16T06:08:09;12.00;99.90
54264;DHT22;40178;53.042;6.406;2022-10-16T06:11:09;12.40;99.90
54264;DHT22;40178;53.042;6.406;2022-10-16T06:14:32;11.90;99.90
54264;DHT22;40178;53.042;6.406;2022-10-16T06:17:21;11.90;99.90
54264;DHT22;40178;53.042;6.406;2022-10-16T06:20:09;11.90;99.90
54264;DHT22;40178;53.042;6.406;2022-10-16T06:27:21;11.80;99.90
54264;DHT22;40178;53.042;6.406;2022-10-16T06:30:07;12.30;99.90
54264;DHT22;40178;53.042;6.406;2022-10-16T06:33:20;12.00;99.90
54264;DHT22;40178;53.042;6.406;2022-10-16T06:36:16;12.30;99.90
54264;DHT22;40178;53.042;6.406;2022-10-16T06:39:23;12.20;99.90
54264;DHT22;40178;53.042;6.406;2022-10-16T06:42:12;12.20;99.90
54264;DHT22;40178;53.042;6.406;2022-10-16T06:45:25;12.30;99.90
54264;DHT22;40178;53.042;6.406;2022-10-16T06:47:53;12.10;99.90
54264;DHT22;40178;53.042;6.406;2022-10-16T06:53:17;12.50;99.90
54264;DHT22;40178;53.042;6.406;2022-10-16T06:55:45;12.20;99.90
54264;DHT22;40178;53.042;6.406;2022-10-16T06:58:13;12.30;99.90
54264;DHT22;40178;53.042;6.406;2022-10-16T07:04:07;11.90;99.90
54264;DHT22;40178;53.042;6.406;2022-10-16T07:13:07;12.30;99.90
54264;DHT22;40178;53.042;6.406;2022-10-16T07:16:22;12.40;99.90
54264;DHT22;40178;53.042;6.406;2022-10-16T07:19:05;12.50;99.90
54264;DHT22;40178;53.042;6.406;2022-10-16T07:24:16;12.30;99.90
54264;DHT22;40178;53.042;6.406;2022-10-16T07:26:44;12.40;99.90
54264;DHT22;40178;53.042;6.406;2022-10-16T07:29:14;12.30;99.90
54264;DHT22;40178;53.042;6.406;2022-10-16T07:31:40;12.20;99.90
54264;DHT22;40178;53.042;6.406;2022-10-16T07:34:06;12.20;99.90
54264;DHT22;40178;53.042;6.406;2022-10-16T07:36:31;12.30;99.90
54264;DHT22;40178;53.042;6.406;2022-10-16T07:38:57;12.30;99.90
54264;DHT22;40178;53.042;6.406;2022-10-16T07:41:23;12.40;99.90
54264;DHT22;40178;53.042;6.406;2022-10-16T07:43:50;12.50;99.90
54264;DHT22;40178;53.042;6.406;2022-10-16T07:46:17;12.50;99.90
54264;DHT22;40178;53.042;6.406;2022-10-16T07:48:44;12.70;99.90
54264;DHT22;40178;53.042;6.406;2022-10-16T07:51:13;12.60;99.90
54264;DHT22;40178;53.042;6.406;2022-10-16T07:53:39;12.80;99.90
54264;DHT22;40178;53.042;6.406;2022-10-16T07:56:06;12.80;99.90
54264;DHT22;40178;53.042;6.406;2022-10-16T07:58:33;12.80;99.90
54264;DHT22;40178;53.042;6.406;2022-10-16T08:00:59;12.90;99.90
54264;DHT22;40178;53.042;6.406;2022-10-16T08:03:28;13.10;99.90
54264;DHT22;40178;53.042;6.406;2022-10-16T08:05:53;13.00;99.90
54264;DHT22;40178;53.042;6.406;2022-10-16T08:08:19;13.10;99.90
54264;DHT22;40178;53.042;6.406;2022-10-16T08:10:45;13.00;99.90
54264;DHT22;40178;53.042;6.406;2022-10-16T08:13:10;13.10;99.90
54264;DHT22;40178;53.042;6.406;2022-10-16T08:15:36;13.10;99.90
54264;DHT22;40178;53.042;6.406;2022-10-16T08:18:04;13.00;99.90
54264;DHT22;40178;53.042;6.406;2022-10-16T08:20:33;13.00;99.90
54264;DHT22;40178;53.042;6.406;2022-10-16T08:23:00;13.00;99.90
54264;DHT22;40178;53.042;6.406;2022-10-16T08:25:25;13.00;99.90
54264;DHT22;40178;53.042;6.406;2022-10-16T08:27:51;13.20;99.90
54264;DHT22;40178;53.042;6.406;2022-10-16T08:30:19;13.40;99.90
54264;DHT22;40178;53.042;6.406;2022-10-16T08:32:44;13.40;99.90
54264;DHT22;40178;53.042;6.406;2022-10-16T08:35:11;13.50;99.90
54264;DHT22;40178;53.042;6.406;2022-10-16T08:37:37;13.60;99.90
54264;DHT22;40178;53.042;6.406;2022-10-16T08:40:06;13.70;99.90
54264;DHT22;40178;53.042;6.406;2022-10-16T08:50:50;13.80;99.90
54264;DHT22;40178;53.042;6.406;2022-10-16T08:53:43;13.90;99.90
54264;DHT22;40178;53.042;6.406;2022-10-16T08:56:10;14.00;99.90
54264;DHT22;40178;53.042;6.406;2022-10-16T08:58:35;14.10;99.90
54264;DHT22;40178;53.042;6.406;2022-10-16T09:01:03;14.10;99.90
54264;DHT22;40178;53.042;6.406;2022-10-16T09:06:35;14.40;99.90
54264;DHT22;40178;53.042;6.406;2022-10-16T09:09:50;14.40;99.90
54264;DHT22;40178;53.042;6.406;2022-10-16T09:12:33;14.50;99.90
54264;DHT22;40178;53.042;6.406;2022-10-16T09:20:31;14.80;99.90
54264;DHT22;40178;53.042;6.406;2022-10-16T09:23:08;14.90;99.90
54264;DHT22;40178;53.042;6.406;2022-10-16T09:25:35;14.90;99.90
54264;DHT22;40178;53.042;6.406;2022-10-16T09:28:01;15.10;99.90
54264;DHT22;40178;53.042;6.406;2022-10-16T09:30:29;15.30;99.90
54264;DHT22;40178;53.042;6.406;2022-10-16T09:32:55;15.50;99.90
54264;DHT22;40178;53.042;6.406;2022-10-16T09:35:28;15.50;99.90
54264;DHT22;40178;53.042;6.406;2022-10-16T09:37:56;15.60;99.90
54264;DHT22;40178;53.042;6.406;2022-10-16T09:40:32;15.60;99.90
54264;DHT22;40178;53.042;6.406;2022-10-16T09:43:25;15.40;99.90
54264;DHT22;40178;53.042;6.406;2022-10-16T09:48:28;15.30;99.90
54264;DHT22;40178;53.042;6.406;2022-10-16T09:51:01;15.40;99.90
54264;DHT22;40178;53.042;6.406;2022-10-16T09:53:38;15.50;99.90
54264;DHT22;40178;53.042;6.406;2022-10-16T09:56:04;15.50;99.90
54264;DHT22;40178;53.042;6.406;2022-10-16T09:58:32;15.60;99.90
54264;DHT22;40178;53.042;6.406;2022-10-16T10:00:59;15.70;99.90
54264;DHT22;40178;53.042;6.406;2022-10-16T10:03:39;15.70;99.90
54264;DHT22;40178;53.042;6.406;2022-10-16T10:06:26;15.50;99.90
54264;DHT22;40178;53.042;6.406;2022-10-16T10:09:20;15.50;99.90
54264;DHT22;40178;53.042;6.406;2022-10-16T10:16:42;15.80;99.90
54264;DHT22;40178;53.042;6.406;2022-10-16T10:19:23;15.70;99.90
54264;DHT22;40178;53.042;6.406;2022-10-16T10:21:50;15.70;99.90
54264;DHT22;40178;53.042;6.406;2022-10-16T10:24:18;15.60;99.90
54264;DHT22;40178;53.042;6.406;2022-10-16T10:29:44;15.60;99.90
54264;DHT22;40178;53.042;6.406;2022-10-16T10:32:26;15.60;99.90
54264;DHT22;40178;53.042;6.406;2022-10-16T10:35:03;15.70;99.90
54264;DHT22;40178;53.042;6.406;2022-10-16T10:45:43;16.10;97.90
54264;DHT22;40178;53.042;6.406;2022-10-16T10:50:49;15.90;99.90
54264;DHT22;40178;53.042;6.406;2022-10-16T10:53:42;15.80;96.90
54264;DHT22;40178;53.042;6.406;2022-10-16T10:56:30;16.00;99.90
54264;DHT22;40178;53.042;6.406;2022-10-16T11:02:00;16.00;99.90
54264;DHT22;40178;53.042;6.406;2022-10-16T11:04:54;16.00;98.60
54264;DHT22;40178;53.042;6.406;2022-10-16T11:07:25;16.10;99.90
54264;DHT22;40178;53.042;6.406;2022-10-16T11:12:55;16.00;97.00
54264;DHT22;40178;53.042;6.406;2022-10-16T11:15:28;15.70;94.10
54264;DHT22;40178;53.042;6.406;2022-10-16T11:20:26;15.60;97.40
54264;DHT22;40178;53.042;6.406;2022-10-16T11:22:56;15.60;88.20
54264;DHT22;40178;53.042;6.406;2022-10-16T11:25:26;15.50;97.10
54264;DHT22;40178;53.042;6.406;2022-10-16T11:30:29;15.50;85.70
54264;DHT22;40178;53.042;6.406;2022-10-16T11:33:39;15.50;80.70
54264;DHT22;40178;53.042;6.406;2022-10-16T11:38:58;15.50;88.00
54264;DHT22;40178;53.042;6.406;2022-10-16T11:46:31;16.00;64.90
54264;DHT22;40178;53.042;6.406;2022-10-16T11:49:12;16.10;50.20
54264;DHT22;40178;53.042;6.406;2022-10-16T11:51:43;16.20;57.30
54264;DHT22;40178;53.042;6.406;2022-10-16T11:54:32;16.00;59.00
54264;DHT22;40178;53.042;6.406;2022-10-16T11:57:11;16.00;71.40
54264;DHT22;40178;53.042;6.406;2022-10-16T12:00:14;16.10;76.70
54264;DHT22;40178;53.042;6.406;2022-10-16T12:03:16;16.10;64.00
54264;DHT22;40178;53.042;6.406;2022-10-16T12:06:06;16.00;78.80
54264;DHT22;40178;53.042;6.406;2022-10-16T12:08:36;16.10;85.60
54264;DHT22;40178;53.042;6.406;2022-10-16T12:13:45;16.10;67.00
54264;DHT22;40178;53.042;6.406;2022-10-16T12:18:40;16.10;70.90
54264;DHT22;40178;53.042;6.406;2022-10-16T12:21:06;16.30;44.60
54264;DHT22;40178;53.042;6.406;2022-10-16T12:23:56;16.40;49.30
54264;DHT22;40178;53.042;6.406;2022-10-16T12:26:32;16.30;48.90
54264;DHT22;40178;53.042;6.406;2022-10-16T12:32:04;16.30;57.70
54264;DHT22;40178;53.042;6.406;2022-10-16T12:34:40;16.30;72.90
54264;DHT22;40178;53.042;6.406;2022-10-16T12:39:35;16.40;54.10
54264;DHT22;40178;53.042;6.406;2022-10-16T12:42:04;16.40;39.90
54264;DHT22;40178;53.042;6.406;2022-10-16T12:44:34;16.30;49.50
54264;DHT22;40178;53.042;6.406;2022-10-16T12:47:01;16.20;63.30
54264;DHT22;40178;53.042;6.406;2022-10-16T12:49:35;16.00;49.00
54264;DHT22;40178;53.042;6.406;2022-10-16T12:52:02;15.90;49.90
54264;DHT22;40178;53.042;6.406;2022-10-16T12:54:35;15.90;66.10
54264;DHT22;40178;53.042;6.406;2022-10-16T12:57:25;15.80;48.30
54264;DHT22;40178;53.042;6.406;2022-10-16T13:25:53;16.20;22.40
54264;DHT22;40178;53.042;6.406;2022-10-16T13:28:29;16.20;5.60
54264;DHT22;40178;53.042;6.406;2022-10-16T13:30:57;16.20;35.00
54264;DHT22;40178;53.042;6.406;2022-10-16T13:35:59;16.10;28.50
54264;DHT22;40178;53.042;6.406;2022-10-16T13:38:30;16.10;28.30
54264;DHT22;40178;53.042;6.406;2022-10-16T13:41:16;16.10;22.80
54264;DHT22;40178;53.042;6.406;2022-10-16T13:43:47;16.10;14.40
54264;DHT22;40178;53.042;6.406;2022-10-16T13:46:22;16.10;34.80
54264;DHT22;40178;53.042;6.406;2022-10-16T13:49:14;16.10;15.50
54264;DHT22;40178;53.042;6.406;2022-10-16T13:51:40;16.10;20.40
54264;DHT22;40178;53.042;6.406;2022-10-16T13:54:09;16.00;32.20
54264;DHT22;40178;53.042;6.406;2022-10-16T13:56:38;16.00;36.10
54264;DHT22;40178;53.042;6.406;2022-10-16T13:59:06;15.90;34.80
54264;DHT22;40178;53.042;6.406;2022-10-16T14:01:35;15.80;23.10
54264;DHT22;40178;53.042;6.406;2022-10-16T14:04:07;15.60;43.70
54264;DHT22;40178;53.042;6.406;2022-10-16T14:06:35;15.50;37.20
54264;DHT22;40178;53.042;6.406;2022-10-16T14:09:12;15.50;39.00
54264;DHT22;40178;53.042;6.406;2022-10-16T14:11:49;15.40;43.60
54264;DHT22;40178;53.042;6.406;2022-10-16T14:14:18;15.40;43.60
54264;DHT22;40178;53.042;6.406;2022-10-16T14:16:44;15.40;51.80
54264;DHT22;40178;53.042;6.406;2022-10-16T14:19:29;15.40;57.60
54264;DHT22;40178;53.042;6.406;2022-10-16T14:21:56;15.20;57.80
54264;DHT22;40178;53.042;6.406;2022-10-16T14:24:42;15.30;55.70
54264;DHT22;40178;53.042;6.406;2022-10-16T14:27:28;15.30;59.40
54264;DHT22;40178;53.042;6.406;2022-10-16T14:30:17;15.00;63.30
54264;DHT22;40178;53.042;6.406;2022-10-16T14:33:01;15.10;52.80
54264;DHT22;40178;53.042;6.406;2022-10-16T14:35:38;15.00;62.70
54264;DHT22;40178;53.042;6.406;2022-10-16T14:38:06;15.00;69.70
54264;DHT22;40178;53.042;6.406;2022-10-16T14:40:47;15.20;78.00
54264;DHT22;40178;53.042;6.406;2022-10-16T14:43:37;15.40;81.30
54264;DHT22;40178;53.042;6.406;2022-10-16T14:46:12;14.90;79.50
54264;DHT22;40178;53.042;6.406;2022-10-16T14:48:49;15.10;89.60
54264;DHT22;40178;53.042;6.406;2022-10-16T14:51:18;14.80;88.00
54264;DHT22;40178;53.042;6.406;2022-10-16T14:53:44;14.80;92.30
54264;DHT22;40178;53.042;6.406;2022-10-16T14:56:24;15.00;94.20
54264;DHT22;40178;53.042;6.406;2022-10-16T14:58:51;14.70;94.10
54264;DHT22;40178;53.042;6.406;2022-10-16T15:01:17;14.70;94.90
54264;DHT22;40178;53.042;6.406;2022-10-16T15:03:43;14.70;95.50
54264;DHT22;40178;53.042;6.406;2022-10-16T15:06:11;14.50;95.50
54264;DHT22;40178;53.042;6.406;2022-10-16T15:08:37;14.90;96.00
54264;DHT22;40178;53.042;6.406;2022-10-16T15:11:03;14.90;96.60
54264;DHT22;40178;53.042;6.406;2022-10-16T15:13:29;14.70;95.80
54264;DHT22;40178;53.042;6.406;2022-10-16T15:15:54;14.90;98.00
54264;DHT22;40178;53.042;6.406;2022-10-16T15:18:20;14.90;98.90
54264;DHT22;40178;53.042;6.406;2022-10-16T15:20:50;14.80;99.60
54264;DHT22;40178;53.042;6.406;2022-10-16T15:23:18;14.60;99.60
54264;DHT22;40178;53.042;6.406;2022-10-16T15:25:50;14.60;99.90
54264;DHT22;40178;53.042;6.406;2022-10-16T15:28:17;14.60;99.90
54264;DHT22;40178;53.042;6.406;2022-10-16T15:30:44;14.60;99.90
54264;DHT22;40178;53.042;6.406;2022-10-16T15:33:17;14.60;99.90
54264;DHT22;40178;53.042;6.406;2022-10-16T15:35:46;14.50;99.90
54264;DHT22;40178;53.042;6.406;2022-10-16T15:38:13;14.50;99.90
54264;DHT22;40178;53.042;6.406;2022-10-16T15:40:40;14.30;99.90
54264;DHT22;40178;53.042;6.406;2022-10-16T15:43:05;14.30;99.90
54264;DHT22;40178;53.042;6.406;2022-10-16T15:45:31;14.20;99.90
54264;DHT22;40178;53.042;6.406;2022-10-16T15:47:57;14.10;99.90
54264;DHT22;40178;53.042;6.406;2022-10-16T15:50:22;14.00;99.90
54264;DHT22;40178;53.042;6.406;2022-10-16T15:52:49;14.00;99.90
54264;DHT22;40178;53.042;6.406;2022-10-16T15:55:15;13.90;99.90
54264;DHT22;40178;53.042;6.406;2022-10-16T15:57:41;13.90;99.90
54264;DHT22;40178;53.042;6.406;2022-10-16T16:00:19;13.80;99.90
54264;DHT22;40178;53.042;6.406;2022-10-16T16:02:52;13.70;99.90
54264;DHT22;40178;53.042;6.406;2022-10-16T16:05:18;13.70;99.90
54264;DHT22;40178;53.042;6.406;2022-10-16T16:07:44;13.60;99.90
54264;DHT22;40178;53.042;6.406;2022-10-16T16:10:11;13.50;99.90
54264;DHT22;40178;53.042;6.406;2022-10-16T16:12:37;13.40;99.90
54264;DHT22;40178;53.042;6.406;2022-10-16T16:15:07;13.30;99.90
54264;DHT22;40178;53.042;6.406;2022-10-16T16:17:34;13.20;99.90
54264;DHT22;40178;53.042;6.406;2022-10-16T16:20:00;13.20;99.90
54264;DHT22;40178;53.042;6.406;2022-10-16T16:22:26;13.20;99.90
54264;DHT22;40178;53.042;6.406;2022-10-16T16:24:51;13.20;99.90
54264;DHT22;40178;53.042;6.406;2022-10-16T16:27:17;13.10;99.90
54264;DHT22;40178;53.042;6.406;2022-10-16T16:29:42;13.00;99.90
54264;DHT22;40178;53.042;6.406;2022-10-16T16:32:08;13.00;99.90
54264;DHT22;40178;53.042;6.406;2022-10-16T16:34:33;12.90;99.90
54264;DHT22;40178;53.042;6.406;2022-10-16T16:36:59;12.80;99.90
54264;DHT22;40178;53.042;6.406;2022-10-16T16:39:25;12.70;99.90
54264;DHT22;40178;53.042;6.406;2022-10-16T16:41:51;12.70;99.90
54264;DHT22;40178;53.042;6.406;2022-10-16T16:44:17;12.70;99.90
54264;DHT22;40178;53.042;6.406;2022-10-16T16:46:43;12.60;99.90
54264;DHT22;40178;53.042;6.406;2022-10-16T16:49:11;12.50;99.90
54264;DHT22;40178;53.042;6.406;2022-10-16T16:51:37;12.40;99.90
54264;DHT22;40178;53.042;6.406;2022-10-16T16:54:03;12.40;99.90
54264;DHT22;40178;53.042;6.406;2022-10-16T16:56:29;12.30;99.90
54264;DHT22;40178;53.042;6.406;2022-10-16T16:58:56;12.20;99.90
54264;DHT22;40178;53.042;6.406;2022-10-16T17:01:24;12.10;99.90
54264;DHT22;40178;53.042;6.406;2022-10-16T17:03:52;12.10;99.90
54264;DHT22;40178;53.042;6.406;2022-10-16T17:06:19;12.10;99.90
54264;DHT22;40178;53.042;6.406;2022-10-16T17:08:45;12.10;99.90
54264;DHT22;40178;53.042;6.406;2022-10-16T17:11:13;12.00;99.90
54264;DHT22;40178;53.042;6.406;2022-10-16T17:13:39;11.90;99.90
54264;DHT22;40178;53.042;6.406;2022-10-16T17:16:06;11.90;99.90
54264;DHT22;40178;53.042;6.406;2022-10-16T17:18:32;11.90;99.90
54264;DHT22;40178;53.042;6.406;2022-10-16T17:21:02;11.80;99.90
54264;DHT22;40178;53.042;6.406;2022-10-16T17:23:28;11.80;99.90
54264;DHT22;40178;53.042;6.406;2022-10-16T17:25:54;11.70;99.90
54264;DHT22;40178;53.042;6.406;2022-10-16T17:28:20;11.70;99.90
54264;DHT22;40178;53.042;6.406;2022-10-16T17:30:45;11.70;99.90
54264;DHT22;40178;53.042;6.406;2022-10-16T17:33:14;11.60;99.90
54264;DHT22;40178;53.042;6.406;2022-10-16T17:35:45;11.50;99.90
54264;DHT22;40178;53.042;6.406;2022-10-16T17:38:12;11.60;99.90
54264;DHT22;40178;53.042;6.406;2022-10-16T17:40:38;11.60;99.90
54264;DHT22;40178;53.042;6.406;2022-10-16T17:43:04;11.50;99.90
54264;DHT22;40178;53.042;6.406;2022-10-16T17:45:30;11.50;99.90
54264;DHT22;40178;53.042;6.406;2022-10-16T17:47:59;11.50;99.90
54264;DHT22;40178;53.042;6.406;2022-10-16T17:50:25;11.50;99.90
54264;DHT22;40178;53.042;6.406;2022-10-16T17:52:51;11.50;99.90
54264;DHT22;40178;53.042;6.406;2022-10-16T17:55:16;11.50;99.90
54264;DHT22;40178;53.042;6.406;2022-10-16T17:57:42;11.40;99.90
54264;DHT22;40178;53.042;6.406;2022-10-16T18:00:08;11.30;99.90
54264;DHT22;40178;53.042;6.406;2022-10-16T18:02:34;11.30;99.90
54264;DHT22;40178;53.042;6.406;2022-10-16T18:05:00;11.20;99.90
54264;DHT22;40178;53.042;6.406;2022-10-16T18:07:25;11.20;99.90
54264;DHT22;40178;53.042;6.406;2022-10-16T18:10:21;11.20;99.90
54264;DHT22;40178;53.042;6.406;2022-10-16T18:24:35;11.10;99.90
54264;DHT22;40178;53.042;6.406;2022-10-16T18:27:11;11.10;99.90
54264;DHT22;40178;53.042;6.406;2022-10-16T18:29:47;11.10;99.90
54264;DHT22;40178;53.042;6.406;2022-10-16T18:32:23;11.10;99.90
54264;DHT22;40178;53.042;6.406;2022-10-16T18:34:59;11.00;99.90
54264;DHT22;40178;53.042;6.406;2022-10-16T18:37:34;11.10;99.90
54264;DHT22;40178;53.042;6.406;2022-10-16T18:40:11;11.10;99.90
54264;DHT22;40178;53.042;6.406;2022-10-16T18:42:46;11.10;99.90
54264;DHT22;40178;53.042;6.406;2022-10-16T18:45:21;11.00;99.90
54264;DHT22;40178;53.042;6.406;2022-10-16T18:47:57;11.00;99.90
54264;DHT22;40178;53.042;6.406;2022-10-16T18:50:23;11.00;99.90
54264;DHT22;40178;53.042;6.406;2022-10-16T18:52:49;11.00;99.90
54264;DHT22;40178;53.042;6.406;2022-10-16T18:55:14;10.90;99.90
54264;DHT22;40178;53.042;6.406;2022-10-16T18:57:40;10.90;99.90
54264;DHT22;40178;53.042;6.406;2022-10-16T19:00:06;10.90;99.90
54264;DHT22;40178;53.042;6.406;2022-10-16T19:02:32;10.90;99.90
54264;DHT22;40178;53.042;6.406;2022-10-16T19:04:58;10.90;99.90
54264;DHT22;40178;53.042;6.406;2022-10-16T19:07:24;10.90;99.90
54264;DHT22;40178;53.042;6.406;2022-10-16T19:09:50;10.90;99.90
54264;DHT22;40178;53.042;6.406;2022-10-16T19:12:15;10.80;99.90
54264;DHT22;40178;53.042;6.406;2022-10-16T19:14:41;10.80;99.90
54264;DHT22;40178;53.042;6.406;2022-10-16T19:17:06;10.80;99.90
54264;DHT22;40178;53.042;6.406;2022-10-16T19:19:33;10.70;99.90
54264;DHT22;40178;53.042;6.406;2022-10-16T19:21:59;10.80;99.90
54264;DHT22;40178;53.042;6.406;2022-10-16T19:24:43;10.80;99.90
54264;DHT22;40178;53.042;6.406;2022-10-16T19:27:08;10.80;99.90
54264;DHT22;40178;53.042;6.406;2022-10-16T19:29:34;10.80;99.90
54264;DHT22;40178;53.042;6.406;2022-10-16T19:32:00;10.70;99.90
54264;DHT22;40178;53.042;6.406;2022-10-16T19:34:29;10.80;99.90
54264;DHT22;40178;53.042;6.406;2022-10-16T19:36:54;10.70;99.90
54264;DHT22;40178;53.042;6.406;2022-10-16T19:39:20;10.70;99.90
54264;DHT22;40178;53.042;6.406;2022-10-16T19:41:46;10.70;99.90
54264;DHT22;40178;53.042;6.406;2022-10-16T19:44:14;10.70;99.90
54264;DHT22;40178;53.042;6.406;2022-10-16T19:46:41;10.80;99.90
54264;DHT22;40178;53.042;6.406;2022-10-16T19:49:09;10.70;99.90
54264;DHT22;40178;53.042;6.406;2022-10-16T19:51:35;10.70;99.90
54264;DHT22;40178;53.042;6.406;2022-10-16T19:54:05;10.70;99.90
54264;DHT22;40178;53.042;6.406;2022-10-16T19:56:33;10.70;99.90
54264;DHT22;40178;53.042;6.406;2022-10-16T19:58:59;10.70;99.90
54264;DHT22;40178;53.042;6.406;2022-10-16T20:01:27;10.80;99.90
54264;DHT22;40178;53.042;6.406;2022-10-16T20:03:53;10.70;99.90
54264;DHT22;40178;53.042;6.406;2022-10-16T20:06:19;10.80;99.90
54264;DHT22;40178;53.042;6.406;2022-10-16T20:08:46;10.80;99.90
54264;DHT22;40178;53.042;6.406;2022-10-16T20:11:15;10.80;99.90
54264;DHT22;40178;53.042;6.406;2022-10-16T20:13:41;10.80;99.90
54264;DHT22;40178;53.042;6.406;2022-10-16T20:16:07;10.70;99.90
54264;DHT22;40178;53.042;6.406;2022-10-16T20:18:33;10.70;99.90
54264;DHT22;40178;53.042;6.406;2022-10-16T20:20:59;10.70;99.90
54264;DHT22;40178;53.042;6.406;2022-10-16T20:23:25;10.70;99.90